createdAt,value
2022-12-18T00:01:38.766Z,102954.94
2022-12-18T00:04:17.913Z,102953.25
2022-12-18T00:06:44.613Z,102947.84
2022-12-18T00:09:11.342Z,102946.16
2022-12-18T00:11:37.890Z,102954.94
2022-12-18T00:14:04.449Z,102960.22
2022-12-18T00:16:33.851Z,102952.28
2022-12-18T00:19:01.480Z,102962.88
2022-12-18T00:21:29.364Z,102961.19
2022-12-18T00:23:56.050Z,102955.03
2022-12-18T00:26:28.089Z,102958.53
2022-12-18T00:28:56.574Z,102962.97
2022-12-18T00:31:25.171Z,102957.69
2022-12-18T00:33:55.091Z,102949.75
2022-12-18T00:36:24.623Z,102949.88
2022-12-18T00:38:51.382Z,102945.44
2022-12-18T00:41:38.692Z,102938.34
2022-12-18T00:44:06.576Z,102933.06
2022-12-18T00:46:33.161Z,102934.00
2022-12-18T00:49:00.081Z,102933.06
2022-12-18T00:51:27.506Z,102934.84
2022-12-18T00:53:54.092Z,102938.34
2022-12-18T00:56:20.670Z,102944.47
2022-12-18T00:58:47.241Z,102947.09
2022-12-18T01:01:13.912Z,102933.88
2022-12-18T01:03:40.998Z,102935.72
2022-12-18T01:06:09.860Z,102943.66
2022-12-18T01:08:36.880Z,102943.66
2022-12-18T01:11:09.479Z,102939.28
2022-12-18T01:13:36.447Z,102944.47
2022-12-18T01:16:03.468Z,102931.34
2022-12-18T01:18:30.143Z,102933.19
2022-12-18T01:20:56.701Z,102933.19
2022-12-18T01:23:23.314Z,102941.00
2022-12-18T01:25:49.886Z,102934.84
2022-12-18T01:28:16.402Z,102941.94
2022-12-18T01:30:42.959Z,102934.84
2022-12-18T01:33:09.495Z,102936.78
2022-12-18T01:35:46.107Z,102949.03
2022-12-18T01:38:12.665Z,102953.38
2022-12-18T01:40:39.238Z,102956.00
2022-12-18T01:43:05.784Z,102959.63
2022-12-18T01:45:33.485Z,102970.19
2022-12-18T01:48:04.557Z,102967.56
2022-12-18T01:50:40.843Z,102965.72
2022-12-18T01:53:20.297Z,102975.47
2022-12-18T01:55:53.260Z,102967.56
2022-12-18T01:58:23.133Z,102963.09
2022-12-18T02:00:49.733Z,102969.22
2022-12-18T02:03:16.502Z,102971.88
2022-12-18T02:05:50.576Z,102966.59
2022-12-18T02:08:22.005Z,102975.38
2022-12-18T02:11:06.809Z,102978.84
2022-12-18T02:13:57.493Z,102977.16
2022-12-18T02:16:40.325Z,102982.44
2022-12-18T02:19:45.062Z,102982.44
2022-12-18T02:22:17.194Z,102980.78
2022-12-18T02:25:14.833Z,102983.31
2022-12-18T02:27:42.495Z,102978.94
2022-12-18T02:30:09.527Z,102987.75
2022-12-18T02:32:39.674Z,102988.72
2022-12-18T02:35:07.782Z,102984.38
2022-12-18T02:37:35.428Z,102979.91
2022-12-18T02:40:03.624Z,102979.91
2022-12-18T02:42:30.185Z,102987.03
2022-12-18T02:44:56.800Z,102994.97
2022-12-18T02:47:26.008Z,102994.97
2022-12-18T02:49:58.672Z,103001.06
2022-12-18T02:52:47.383Z,103002.03
2022-12-18T02:55:40.068Z,102998.53
2022-12-18T02:58:17.802Z,103004.69
2022-12-18T03:00:52.258Z,103009.13
2022-12-18T03:03:33.692Z,103007.31
2022-12-18T03:06:04.918Z,103012.63
2022-12-18T03:08:36.493Z,103024.16
2022-12-18T03:11:08.948Z,103024.03
2022-12-18T03:13:48.688Z,103018.00
2022-12-18T03:16:27.275Z,103026.78
2022-12-18T03:19:02.893Z,103023.28
2022-12-18T03:21:33.264Z,103025.94
2022-12-18T03:24:00.593Z,103033.88
2022-12-18T03:26:27.980Z,103023.28
2022-12-18T03:29:01.158Z,103029.44
2022-12-18T03:31:29.724Z,103024.16
2022-12-18T03:34:02.428Z,103022.44
2022-12-18T03:36:32.880Z,103023.28
2022-12-18T03:38:59.477Z,103014.50
2022-12-18T03:41:42.386Z,103017.16
2022-12-18T03:44:15.714Z,103018.00
2022-12-18T03:46:57.286Z,103015.38
2022-12-18T03:49:50.001Z,103019.78
2022-12-18T03:52:28.005Z,103012.00
2022-12-18T03:54:56.352Z,103014.50
2022-12-18T03:57:26.777Z,103017.16
2022-12-18T03:59:57.406Z,103025.94
2022-12-18T04:02:25.557Z,103024.16
2022-12-18T04:04:58.681Z,103028.59
2022-12-18T04:07:25.340Z,103024.97
2022-12-18T04:09:55.173Z,103016.34
2022-12-18T04:12:21.705Z,103029.34
2022-12-18T04:14:48.209Z,103027.63
2022-12-18T04:17:14.747Z,103024.97
2022-12-18T04:19:41.274Z,103029.44
2022-12-18T04:22:07.810Z,103028.59
2022-12-18T04:24:35.542Z,103025.94
2022-12-18T04:27:02.146Z,103017.28
2022-12-18T04:29:29.190Z,103028.59
2022-12-18T04:31:55.748Z,103032.09
2022-12-18T04:34:22.339Z,103025.94
2022-12-18T04:36:49.032Z,103019.69
2022-12-18T04:39:19.503Z,103025.94
2022-12-18T04:41:46.044Z,103026.91
2022-12-18T04:44:12.599Z,103032.19
2022-12-18T04:46:39.225Z,103032.19
2022-12-18T04:49:05.845Z,103023.41
2022-12-18T04:51:32.355Z,103033.00
2022-12-18T04:53:58.894Z,103029.56
2022-12-18T04:56:25.527Z,103035.81
2022-12-18T04:58:52.115Z,103035.81
2022-12-18T05:01:19.406Z,103042.88
2022-12-18T05:03:46.411Z,103058.63
2022-12-18T05:06:13.102Z,103060.41
2022-12-18T05:08:39.722Z,103063.06
2022-12-18T05:11:08.772Z,103077.16
2022-12-18T05:13:36.057Z,103077.25
2022-12-18T05:16:03.541Z,103074.50
2022-12-18T05:18:30.144Z,103073.63
2022-12-18T05:20:56.840Z,103064.03
2022-12-18T05:23:24.885Z,103065.81
2022-12-18T05:25:56.627Z,103067.53
2022-12-18T05:28:24.505Z,103071.97
2022-12-18T05:30:52.645Z,103068.47
2022-12-18T05:33:19.961Z,103069.44
2022-12-18T05:35:51.827Z,103069.31
2022-12-18T05:38:19.002Z,103066.69
2022-12-18T05:40:45.571Z,103071.09
2022-12-18T05:43:15.381Z,103079.03
2022-12-18T05:45:46.269Z,103084.47
2022-12-18T05:48:14.020Z,103080.97
2022-12-18T05:50:42.507Z,103087.13
2022-12-18T05:53:09.401Z,103088.69
2022-12-18T05:55:37.081Z,103086.97
2022-12-18T05:58:04.873Z,103086.97
2022-12-18T06:00:33.059Z,103084.22
2022-12-18T06:03:00.181Z,103093.97
2022-12-18T06:05:26.837Z,103099.25
2022-12-18T06:07:53.374Z,103106.22
2022-12-18T06:10:20.396Z,103103.59
2022-12-18T06:12:46.935Z,103109.69
2022-12-18T06:15:14.100Z,103106.22
2022-12-18T06:17:41.206Z,103104.53
2022-12-18T06:20:08.156Z,103106.22
2022-12-18T06:22:35.879Z,103109.84
2022-12-18T06:25:02.453Z,103112.47
2022-12-18T06:27:29.013Z,103112.47
2022-12-18T06:29:55.518Z,103114.25
2022-12-18T06:32:22.081Z,103116.06
2022-12-18T06:34:48.646Z,103115.13
2022-12-18T06:37:15.488Z,103124.84
2022-12-18T06:39:42.026Z,103136.28
2022-12-18T06:42:08.534Z,103131.09
2022-12-18T06:44:35.062Z,103147.78
2022-12-18T06:47:01.605Z,103150.44
2022-12-18T06:49:30.660Z,103148.75
2022-12-18T06:51:57.462Z,103154.03
2022-12-18T06:54:23.983Z,103151.38
2022-12-18T06:56:50.592Z,103148.75
2022-12-18T06:59:17.622Z,103152.34
2022-12-18T07:01:44.386Z,103145.38
2022-12-18T07:04:11.059Z,103148.97
2022-12-18T07:06:37.586Z,103163.03
2022-12-18T07:09:04.315Z,103169.19
2022-12-18T07:11:33.686Z,103160.38
2022-12-18T07:14:00.218Z,103159.53
2022-12-18T07:16:26.939Z,103163.03
2022-12-18T07:18:55.815Z,103170.97
2022-12-18T07:21:23.465Z,103170.97
2022-12-18T07:23:50.117Z,103171.94
2022-12-18T07:26:18.844Z,103167.47
2022-12-18T07:28:45.578Z,103161.25
2022-12-18T07:31:15.550Z,103155.97
2022-12-18T07:33:42.845Z,103157.75
2022-12-18T07:36:10.829Z,103154.13
2022-12-18T07:38:37.846Z,103162.94
2022-12-18T07:41:06.788Z,103172.66
2022-12-18T07:43:34.044Z,103167.34
2022-12-18T07:46:00.784Z,103166.53
2022-12-18T07:48:27.463Z,103176.25
2022-12-18T07:50:54.264Z,103177.84
2022-12-18T07:53:20.875Z,103176.16
2022-12-18T07:56:18.465Z,103167.25
2022-12-18T07:58:34.230Z,103159.31
2022-12-18T08:01:08.455Z,103167.25
2022-12-18T08:03:35.399Z,103168.94
2022-12-18T08:06:02.815Z,103166.28
2022-12-18T08:08:30.211Z,103159.31
2022-12-18T08:10:57.278Z,103154.88
2022-12-18T08:13:24.104Z,103162.72
2022-12-18T08:16:06.858Z,103159.22
2022-12-18T08:18:34.189Z,103165.47
2022-12-18T08:21:19.115Z,103162.94
2022-12-18T08:23:47.931Z,103169.91
2022-12-18T08:26:15.744Z,103166.28
2022-12-18T08:28:42.496Z,103162.94
2022-12-18T08:31:09.266Z,103170.84
2022-12-18T08:33:37.281Z,103166.44
2022-12-18T08:36:05.075Z,103169.06
2022-12-18T08:38:32.826Z,103165.56
2022-12-18T08:41:04.722Z,103163.88
2022-12-18T08:43:49.863Z,103159.44
2022-12-18T08:46:16.484Z,103163.03
2022-12-18T08:48:43.309Z,103170.84
2022-12-18T08:51:10.673Z,103170.00
2022-12-18T08:53:38.756Z,103166.44
2022-12-18T08:56:06.134Z,103177.94
2022-12-18T08:58:32.773Z,103188.50
2022-12-18T09:01:08.419Z,103186.72
2022-12-18T09:03:35.063Z,103177.00
2022-12-18T09:06:01.811Z,103179.66
2022-12-18T09:08:28.793Z,103190.34
2022-12-18T09:10:56.123Z,103190.22
2022-12-18T09:13:23.339Z,103191.06
2022-12-18T09:15:54.232Z,103192.88
2022-12-18T09:18:22.536Z,103208.59
2022-12-18T09:20:49.475Z,103217.50
2022-12-18T09:23:15.994Z,103222.78
2022-12-18T09:25:42.633Z,103226.28
2022-12-18T09:28:17.072Z,103226.38
2022-12-18T09:30:46.781Z,103236.00
2022-12-18T09:33:13.598Z,103235.19
2022-12-18T09:35:42.158Z,103234.31
2022-12-18T09:38:10.044Z,103227.34
2022-12-18T09:40:49.197Z,103236.97
2022-12-18T09:43:21.370Z,103238.03
2022-12-18T09:45:54.919Z,103229.13
2022-12-18T09:48:27.512Z,103226.50
2022-12-18T09:50:58.727Z,103230.00
2022-12-18T09:53:27.942Z,103225.63
2022-12-18T09:55:55.614Z,103226.38
2022-12-18T09:58:28.026Z,103225.53
2022-12-18T10:00:55.667Z,103217.50
2022-12-18T10:03:22.460Z,103219.31
2022-12-18T10:06:13.802Z,103214.13
2022-12-18T10:08:58.094Z,103206.91
2022-12-18T10:11:51.708Z,103201.63
2022-12-18T10:14:31.867Z,103202.47
2022-12-18T10:17:29.457Z,103190.94
2022-12-18T10:20:12.375Z,103177.72
2022-12-18T10:23:00.404Z,103168.22
2022-12-18T10:25:27.338Z,103167.25
2022-12-18T10:27:57.548Z,103155.84
2022-12-18T10:30:25.487Z,103154.03
2022-12-18T10:32:52.241Z,103161.97
2022-12-18T10:35:21.751Z,103160.19
2022-12-18T10:38:17.371Z,103170.00
2022-12-18T10:40:56.019Z,103168.13
2022-12-18T10:43:27.035Z,103169.06
2022-12-18T10:46:01.178Z,103171.59
2022-12-18T10:48:28.665Z,103164.63
2022-12-18T10:51:13.064Z,103165.47
2022-12-18T10:53:41.426Z,103159.44
2022-12-18T10:56:11.224Z,103153.06
2022-12-18T10:58:40.006Z,103147.78
2022-12-18T11:01:18.720Z,103150.44
2022-12-18T11:03:52.957Z,103140.81
2022-12-18T11:06:25.471Z,103132.88
2022-12-18T11:09:01.669Z,103136.38
2022-12-18T11:11:28.431Z,103137.22
2022-12-18T11:14:00.736Z,103139.84
2022-12-18T11:16:28.081Z,103133.63
2022-12-18T11:18:54.869Z,103127.59
2022-12-18T11:21:21.413Z,103135.53
2022-12-18T11:23:52.015Z,103118.94
2022-12-18T11:26:18.834Z,103121.47
2022-12-18T11:28:48.576Z,103111.84
2022-12-18T11:31:29.941Z,103113.66
2022-12-18T11:36:50.351Z,103112.91
2022-12-18T11:39:18.415Z,103112.91
2022-12-18T11:42:10.191Z,103113.66
2022-12-18T11:45:00.837Z,103119.78
2022-12-18T11:48:04.476Z,103117.97
2022-12-18T11:50:45.133Z,103112.69
2022-12-18T11:53:12.773Z,103116.19
2022-12-18T11:55:41.898Z,103119.66
2022-12-18T11:58:29.399Z,103119.66
2022-12-18T12:01:06.297Z,103118.69
2022-12-18T12:03:32.841Z,103121.34
2022-12-18T12:06:19.978Z,103120.41
2022-12-18T12:09:15.859Z,103109.84
2022-12-18T12:12:17.972Z,103116.81
2022-12-18T12:15:03.039Z,103124.75
2022-12-18T12:17:57.097Z,103122.09
2022-12-18T12:20:34.772Z,103130.84
2022-12-18T12:23:05.949Z,103129.28
2022-12-18T12:25:48.091Z,103130.03
2022-12-18T12:28:14.579Z,103125.69
2022-12-18T12:31:01.043Z,103118.59
2022-12-18T12:33:46.377Z,103128.22
2022-12-18T12:36:34.541Z,103122.19
2022-12-18T12:39:39.011Z,103125.69
2022-12-18T12:42:26.132Z,103128.22
2022-12-18T12:44:56.487Z,103138.91
2022-12-18T12:47:31.875Z,103140.72
2022-12-18T12:50:00.465Z,103145.13
2022-12-18T12:52:37.208Z,103157.44
2022-12-18T12:55:11.509Z,103159.31
2022-12-18T12:57:44.597Z,103164.50
2022-12-18T13:00:17.324Z,103165.47
2022-12-18T13:03:13.675Z,103161.00
2022-12-18T13:05:59.847Z,103161.97
2022-12-18T13:08:33.323Z,103162.94
2022-12-18T13:11:20.647Z,103162.81
2022-12-18T13:13:53.139Z,103147.06
2022-12-18T13:16:21.809Z,103136.50
2022-12-18T13:18:57.907Z,103133.84
2022-12-18T13:21:28.628Z,103132.06
2022-12-18T13:23:56.729Z,103123.28
2022-12-18T13:26:28.662Z,103128.56
2022-12-18T13:28:57.356Z,103126.78
2022-12-18T13:31:42.661Z,103131.19
2022-12-18T13:34:28.271Z,103134.81
2022-12-18T13:36:56.906Z,103146.09
2022-12-18T13:39:34.235Z,103145.28
2022-12-18T13:42:08.496Z,103139.13
2022-12-18T13:44:40.563Z,103143.56
2022-12-18T13:47:34.794Z,103141.66
2022-12-18T13:50:03.218Z,103140.81
2022-12-18T13:52:36.552Z,103140.81
2022-12-18T13:55:06.960Z,103140.81
2022-12-18T13:57:35.455Z,103139.84
2022-12-18T14:00:37.922Z,103141.66
2022-12-18T14:03:22.448Z,103141.56
2022-12-18T14:05:58.184Z,103130.25
2022-12-18T14:08:25.105Z,103118.69
2022-12-18T14:10:53.438Z,103105.47
2022-12-18T14:13:30.362Z,103113.41
2022-12-18T14:15:59.235Z,103119.66
2022-12-18T14:18:40.867Z,103109.09
2022-12-18T14:21:07.961Z,103098.50
2022-12-18T14:23:40.536Z,103097.78
2022-12-18T14:26:29.807Z,103107.41
2022-12-18T14:28:57.812Z,103103.06
2022-12-18T14:31:26.680Z,103110.06
2022-12-18T14:33:53.810Z,103102.22
2022-12-18T14:36:23.542Z,103098.63
2022-12-18T14:39:00.154Z,103100.44
2022-12-18T14:41:27.475Z,103095.25
2022-12-18T14:43:55.265Z,103089.84
2022-12-18T14:46:34.240Z,103092.59
2022-12-18T14:49:06.862Z,103084.69
2022-12-18T14:51:34.719Z,103081.06
2022-12-18T14:54:02.380Z,103081.19
2022-12-18T14:56:35.335Z,103076.75
2022-12-18T14:59:06.980Z,103074.09
2022-12-18T15:01:39.885Z,103058.34
2022-12-18T15:04:25.811Z,103059.06
2022-12-18T15:07:05.621Z,103052.19
2022-12-18T15:09:32.206Z,103053.06
2022-12-18T15:12:00.894Z,103059.06
2022-12-18T15:14:40.092Z,103043.34
2022-12-18T15:17:20.001Z,103030.13
2022-12-18T15:19:48.329Z,103031.91
2022-12-18T15:22:35.666Z,103035.41
2022-12-18T15:25:03.600Z,103039.84
2022-12-18T15:27:39.142Z,103058.25
2022-12-18T15:30:08.994Z,103073.25
2022-12-18T15:32:39.812Z,103081.19
2022-12-18T15:35:12.253Z,103092.59
2022-12-18T15:37:39.102Z,103090.94
2022-12-18T15:40:08.896Z,103089.97
2022-12-18T15:42:54.105Z,103089.09
2022-12-18T15:45:20.702Z,103085.66
2022-12-18T15:47:50.701Z,103084.69
2022-12-18T15:50:17.264Z,103063.63
2022-12-18T15:52:47.371Z,103054.75
2022-12-18T15:55:41.124Z,103067.97
2022-12-18T15:58:09.724Z,103061.00
2022-12-18T16:00:38.074Z,103060.88
2022-12-18T16:03:05.456Z,103060.88
2022-12-18T16:05:32.559Z,103063.41
2022-12-18T16:07:59.298Z,103066.06
2022-12-18T16:10:26.591Z,103050.19
2022-12-18T16:12:53.261Z,103046.69
2022-12-18T16:15:24.553Z,103056.41
2022-12-18T16:17:52.680Z,103060.78
2022-12-18T16:20:21.928Z,103054.63
2022-12-18T16:22:49.314Z,103061.59
2022-12-18T16:25:21.600Z,103038.88
2022-12-18T16:27:49.600Z,103034.56
2022-12-18T16:30:22.824Z,103026.50
2022-12-18T16:32:49.510Z,103020.47
2022-12-18T16:35:17.090Z,103019.53
2022-12-18T16:37:45.521Z,103017.84
2022-12-18T16:40:15.134Z,103011.63
2022-12-18T16:42:43.348Z,103016.06
2022-12-18T16:45:12.182Z,103018.69
2022-12-18T16:47:39.910Z,103008.97
2022-12-18T16:50:07.756Z,103008.97
2022-12-18T16:52:34.908Z,103007.25
2022-12-18T16:55:01.651Z,103007.25
2022-12-18T16:57:28.232Z,103008.13
2022-12-18T16:59:56.810Z,102996.69
2022-12-18T17:02:27.752Z,103007.25
2022-12-18T17:04:56.710Z,103001.97
2022-12-18T17:07:24.040Z,102992.47
2022-12-18T17:09:51.189Z,103007.25
2022-12-18T17:12:18.217Z,103006.44
2022-12-18T17:14:45.101Z,103003.78
2022-12-18T17:17:26.933Z,103003.03
2022-12-18T17:19:53.674Z,103009.91
2022-12-18T17:22:23.133Z,103005.59
2022-12-18T17:24:49.732Z,103005.59
2022-12-18T17:27:16.630Z,103004.63
2022-12-18T17:29:47.765Z,103008.22
2022-12-18T17:32:15.505Z,103016.06
2022-12-18T17:34:42.213Z,103010.88
2022-12-18T17:37:09.354Z,102999.59
2022-12-18T17:39:36.199Z,103003.03
2022-12-18T17:42:03.123Z,103003.91
2022-12-18T17:44:29.789Z,102997.75
2022-12-18T17:46:56.492Z,102988.16
2022-12-18T17:49:23.138Z,102987.19
2022-12-18T17:51:49.810Z,102997.66
2022-12-18T17:54:16.408Z,102991.66
2022-12-18T17:56:43.252Z,103006.53
2022-12-18T17:59:09.871Z,103003.78
2022-12-18T18:01:42.541Z,103006.44
2022-12-18T18:04:11.757Z,103004.63
2022-12-18T18:06:39.051Z,102999.34
2022-12-18T18:09:16.640Z,103006.31
2022-12-18T18:12:03.014Z,103012.56
2022-12-18T18:14:29.843Z,103003.69
2022-12-18T18:16:56.611Z,103000.19
2022-12-18T18:19:29.095Z,103001.03
2022-12-18T18:21:55.668Z,103011.72
2022-12-18T18:24:23.678Z,103003.78
2022-12-18T18:26:50.811Z,102994.19
2022-12-18T18:29:21.231Z,102975.53
2022-12-18T18:31:48.779Z,102976.59
2022-12-18T18:34:22.956Z,102969.44
2022-12-18T18:36:49.551Z,102966.78
2022-12-18T18:39:16.168Z,102969.44
2022-12-18T18:41:45.417Z,102966.78
2022-12-18T18:44:14.400Z,102961.50
2022-12-18T18:46:41.021Z,102959.94
2022-12-18T18:49:07.590Z,102956.22
2022-12-18T18:51:35.186Z,102955.34
2022-12-18T18:54:02.499Z,102956.22
2022-12-18T18:59:16.510Z,102952.72
2022-12-18T19:01:43.499Z,102953.56
2022-12-18T19:04:10.373Z,102944.78
2022-12-18T19:06:37.030Z,102923.75
2022-12-18T19:09:04.972Z,102917.53
2022-12-18T19:11:50.884Z,102907.88
2022-12-18T19:14:17.574Z,102909.59
2022-12-18T19:16:45.520Z,102905.97
2022-12-18T19:19:18.278Z,102895.41
2022-12-18T19:21:45.033Z,102896.38
2022-12-18T19:24:11.613Z,102891.91
2022-12-18T19:26:38.685Z,102900.69
2022-12-18T19:29:07.028Z,102901.50
2022-12-18T19:31:36.471Z,102905.97
2022-12-18T19:34:05.333Z,102894.66
2022-12-18T19:36:32.879Z,102896.22
2022-12-18T19:39:01.352Z,102894.56
2022-12-18T19:41:29.138Z,102896.22
2022-12-18T19:43:58.443Z,102884.94
2022-12-18T19:46:25.360Z,102883.16
2022-12-18T19:48:52.200Z,102887.47
2022-12-18T19:51:23.251Z,102884.81
2022-12-18T19:53:54.984Z,102870.88
2022-12-18T19:56:26.126Z,102877.72
2022-12-18T19:58:53.638Z,102875.22
2022-12-18T20:01:22.020Z,102875.94
2022-12-18T20:03:51.509Z,102869.78
2022-12-18T20:06:30.786Z,102868.84
2022-12-18T20:09:00.485Z,102865.34
2022-12-18T20:11:31.148Z,102867.03
2022-12-18T20:13:58.416Z,102852.13
2022-12-18T20:16:25.111Z,102854.78
2022-12-18T20:18:52.429Z,102857.44
2022-12-18T20:21:20.884Z,102859.09
2022-12-18T20:23:47.440Z,102864.38
2022-12-18T20:26:14.005Z,102859.09
2022-12-18T20:28:40.841Z,102862.59
2022-12-18T20:31:10.532Z,102867.03
2022-12-18T20:33:40.677Z,102859.09
2022-12-18T20:36:10.513Z,102860.94
2022-12-18T20:38:39.110Z,102857.44
2022-12-18T20:41:11.814Z,102864.50
2022-12-18T20:43:39.377Z,102868.97
2022-12-18T20:46:09.485Z,102874.25
2022-12-18T20:48:36.212Z,102879.44
2022-12-18T20:51:05.782Z,102877.72
2022-12-18T20:53:33.463Z,102873.28
2022-12-18T20:56:00.228Z,102870.66
2022-12-18T20:58:26.797Z,102853.94
2022-12-18T21:01:07.475Z,102853.09
2022-12-18T21:03:36.944Z,102839.88
2022-12-18T21:06:04.218Z,102836.28
2022-12-18T21:08:30.783Z,102831.97
2022-12-18T21:11:37.149Z,102825.81
2022-12-18T21:14:15.129Z,102824.03
2022-12-18T21:16:43.817Z,102823.28
2022-12-18T21:19:16.165Z,102823.28
2022-12-18T21:21:43.070Z,102826.66
2022-12-18T21:24:10.579Z,102827.50
2022-12-18T21:26:44.865Z,102815.25
2022-12-18T21:29:15.142Z,102808.16
2022-12-18T21:31:42.113Z,102812.59
2022-12-18T21:34:10.857Z,102802.13
2022-12-18T21:36:37.412Z,102811.78
2022-12-18T21:39:03.977Z,102810.94
2022-12-18T21:41:48.904Z,102814.41
2022-12-18T21:44:17.357Z,102808.38
2022-12-18T21:46:48.845Z,102803.00
2022-12-18T21:49:21.248Z,102800.34
2022-12-18T21:51:49.597Z,102796.84
2022-12-18T21:54:17.017Z,102797.59
2022-12-18T21:56:55.128Z,102787.97
2022-12-18T21:59:33.680Z,102786.16
2022-12-18T22:02:03.004Z,102792.31
2022-12-18T22:04:30.151Z,102781.00
2022-12-18T22:06:57.446Z,102790.47
2022-12-18T22:09:25.177Z,102794.84
2022-12-18T22:11:52.528Z,102790.38
2022-12-18T22:14:19.808Z,102789.56
2022-12-18T22:16:46.844Z,102799.97
2022-12-18T22:19:14.159Z,102788.59
2022-12-18T22:21:43.720Z,102793.88
2022-12-18T22:24:21.411Z,102788.59
2022-12-18T22:26:49.028Z,102782.44
2022-12-18T22:29:44.032Z,102780.66
2022-12-18T22:32:14.962Z,102775.38
2022-12-18T22:34:42.686Z,102764.91
2022-12-18T22:37:11.495Z,102752.53
2022-12-18T22:39:38.159Z,102746.41
2022-12-18T22:42:05.456Z,102750.72
2022-12-18T22:44:32.028Z,102747.09
2022-12-18T22:47:06.511Z,102753.34
2022-12-18T22:49:34.950Z,102742.78
2022-12-18T22:52:03.012Z,102734.03
2022-12-18T22:54:29.708Z,102728.59
2022-12-18T22:56:56.298Z,102725.94
2022-12-18T22:59:23.463Z,102723.47
2022-12-18T23:01:54.183Z,102719.00
2022-12-18T23:04:32.960Z,102704.94
2022-12-18T23:07:04.015Z,102699.66
2022-12-18T23:09:30.574Z,102688.13
2022-12-18T23:11:57.167Z,102686.31
2022-12-18T23:14:23.725Z,102685.47
2022-12-18T23:16:50.794Z,102685.59
2022-12-18T23:19:19.680Z,102684.63
2022-12-18T23:21:46.297Z,102687.16
2022-12-18T23:24:12.886Z,102676.56
2022-12-18T23:26:39.469Z,102680.19
2022-12-18T23:29:06.281Z,102674.06
2022-12-18T23:31:37.614Z,102677.53
2022-12-18T23:34:05.462Z,102666.13
2022-12-18T23:36:36.904Z,102666.13
2022-12-18T23:39:15.495Z,102672.16
2022-12-18T23:41:56.169Z,102665.16
2022-12-18T23:44:22.729Z,102648.47
2022-12-18T23:46:49.304Z,102649.28
2022-12-18T23:49:15.871Z,102646.78
2022-12-18T23:51:42.451Z,102639.69
2022-12-18T23:54:10.238Z,102634.41
2022-12-18T23:56:36.804Z,102628.13
2022-12-18T23:59:03.622Z,102624.56
